Time;durP1;ratioP1;P1;durP2;ratioP2;P2;SDS_P1;SDS_P2;PMS_P1;PMS_P2;Temp;Humidity;BMP_temperature;BMP_pressure;BME280_temperature;BME280_humidity;BME280_pressure;Samples;Min_cycle;Max_cycle;Signal;HPM_P1;HPM_P2
2023/01/13 00:01:15;;;;;;;0.30;0.17;;;7.90;99.90;;;;;;5094908;28;20036;-56
2023/01/13 00:03:41;;;;;;;0.10;0.10;;;7.90;99.90;;;;;;5098040;28;20043;-49
2023/01/13 00:06:13;;;;;;;0.20;0.10;;;7.90;99.90;;;;;;5090601;28;20102;-55
2023/01/13 00:08:39;;;;;;;0.10;0.10;;;7.90;99.90;;;;;;5098435;28;20612;-59
2023/01/13 00:11:04;;;;;;;;;;;7.90;99.90;;;;;;5090744;28;20535;-53
2023/01/13 00:13:32;;;;;;;0.20;0.15;;;7.90;99.90;;;;;;5102918;28;19963;-55
2023/01/13 00:15:59;;;;;;;0.10;0.10;;;7.90;99.90;;;;;;5094673;28;20028;-56
2023/01/13 00:18:25;;;;;;;2.17;0.32;;;7.90;99.90;;;;;;5093988;28;20053;-59
2023/01/13 00:21:05;;;;;;;0.10;0.10;;;7.90;99.90;;;;;;5082425;28;20039;-55
2023/01/13 00:23:33;;;;;;;0.40;0.20;;;7.90;99.90;;;;;;5083382;28;20511;-58
2023/01/13 00:26:07;;;;;;;0.10;0.10;;;8.00;99.90;;;;;;5084750;28;20036;-56
2023/01/13 00:28:33;;;;;;;0.45;0.20;;;7.90;99.90;;;;;;5079894;28;20032;-57
2023/01/13 00:31:10;;;;;;;0.38;0.20;;;7.90;99.90;;;;;;5079461;28;20046;-59
2023/01/13 00:33:35;;;;;;;0.10;0.10;;;7.90;99.90;;;;;;5098389;27;20063;-55
2023/01/13 00:36:02;;;;;;;;;;;8.00;99.90;;;;;;5083205;28;20063;-58
2023/01/13 00:38:30;;;;;;;0.10;0.10;;;8.00;99.90;;;;;;5087447;28;19961;-58
2023/01/13 00:41:00;;;;;;;0.17;0.10;;;7.90;99.90;;;;;;5077814;28;20384;-55
2023/01/13 00:43:28;;;;;;;0.10;0.10;;;8.00;99.90;;;;;;5078065;28;20040;-57
2023/01/13 00:45:54;;;;;;;0.90;0.10;;;7.90;99.90;;;;;;5081308;28;20071;-58
2023/01/13 00:48:21;;;;;;;;;;;7.90;99.90;;;;;;5086646;28;20415;-54
2023/01/13 00:50:54;;;;;;;0.20;0.20;;;7.90;99.90;;;;;;5081093;28;20435;-61
2023/01/13 00:53:20;;;;;;;0.10;0.10;;;8.00;99.90;;;;;;5080830;28;20582;-52
2023/01/13 00:55:45;;;;;;;;;;;7.90;99.90;;;;;;5081903;28;20043;-59
2023/01/13 00:58:11;;;;;;;0.10;0.10;;;7.90;99.90;;;;;;5082244;28;19926;-58
2023/01/13 01:00:36;;;;;;;;;;;7.90;99.90;;;;;;5082132;28;20040;-60
2023/01/13 01:03:06;;;;;;;0.10;0.10;;;7.90;99.90;;;;;;5081762;28;19926;-54
2023/01/13 01:05:32;;;;;;;0.22;0.10;;;7.90;99.90;;;;;;5083206;28;20054;-61
2023/01/13 01:07:58;;;;;;;0.10;0.10;;;8.00;99.90;;;;;;5079768;28;20077;-58
2023/01/13 01:10:24;;;;;;;0.30;0.10;;;7.90;99.90;;;;;;5081069;28;20044;-60
2023/01/13 01:12:49;;;;;;;0.10;0.10;;;8.00;99.90;;;;;;5078843;28;20705;-58
2023/01/13 01:15:15;;;;;;;;;;;7.90;99.90;;;;;;5082426;28;20126;-55
2023/01/13 01:17:41;;;;;;;0.10;0.10;;;8.00;99.90;;;;;;5080610;28;20023;-57
2023/01/13 01:20:07;;;;;;;0.20;0.10;;;7.90;99.90;;;;;;5082609;28;20601;-60
2023/01/13 01:22:33;;;;;;;0.10;0.10;;;8.00;99.90;;;;;;5084486;28;20516;-57
2023/01/13 01:24:59;;;;;;;;;;;7.90;99.90;;;;;;5081036;28;20044;-50
2023/01/13 01:27:24;;;;;;;0.52;0.20;;;7.90;99.90;;;;;;5081150;28;19924;-58
2023/01/13 01:29:50;;;;;;;;;;;7.90;99.90;;;;;;5081821;28;20045;-55
2023/01/13 01:32:16;;;;;;;0.10;0.10;;;7.90;99.90;;;;;;5080578;28;19920;-58
2023/01/13 01:34:41;;;;;;;;;;;7.90;99.90;;;;;;5084427;28;20499;-55
2023/01/13 01:37:07;;;;;;;0.20;0.20;;;7.90;99.90;;;;;;5078766;28;19969;-53
2023/01/13 01:39:32;;;;;;;;;;;7.90;99.90;;;;;;5082621;28;20071;-60
2023/01/13 01:44:58;;;;;;;0.85;0.50;;;7.80;99.90;;;;;;5082064;28;20039;-60
2023/01/13 01:47:25;;;;;;;0.40;0.32;;;7.80;99.90;;;;;;5089980;28;20075;-60
2023/01/13 01:49:51;;;;;;;0.20;0.10;;;7.80;99.90;;;;;;5080576;28;20039;-55
2023/01/13 01:52:33;;;;;;;0.10;0.10;;;7.80;99.90;;;;;;5080343;28;20037;-57
2023/01/13 01:55:04;;;;;;;0.73;0.10;;;7.80;99.90;;;;;;5083833;28;20090;-57
2023/01/13 01:57:56;;;;;;;0.28;0.10;;;7.90;99.90;;;;;;5081757;28;20040;-57
2023/01/13 02:00:22;;;;;;;0.15;0.15;;;7.90;99.90;;;;;;5078085;28;20052;-56
2023/01/13 02:02:50;;;;;;;1.58;0.20;;;7.80;99.90;;;;;;5082681;28;20142;-51
2023/01/13 02:05:16;;;;;;;0.93;0.20;;;7.80;99.90;;;;;;5083065;28;20522;-56
2023/01/13 02:07:44;;;;;;;0.30;0.20;;;7.80;99.90;;;;;;5082596;28;20689;-56
2023/01/13 02:10:13;;;;;;;0.60;0.20;;;7.80;99.90;;;;;;5081153;28;20131;-58
2023/01/13 02:12:40;;;;;;;1.10;0.47;;;7.70;99.90;;;;;;5078639;28;20032;-58
2023/01/13 02:15:12;;;;;;;0.13;0.13;;;7.60;99.90;;;;;;5080227;28;20048;-54
2023/01/13 02:17:57;;;;;;;2.42;0.20;;;7.60;99.90;;;;;;5083938;28;20044;-58
2023/01/13 02:21:01;;;;;;;0.20;0.20;;;7.60;99.90;;;;;;5079580;28;20062;-52
2023/01/13 02:27:17;;;;;;;0.98;0.38;;;7.40;99.90;;;;;;5078045;28;20044;-55
2023/01/13 02:33:03;;;;;;;2.13;0.80;;;7.30;99.90;;;;;;5080649;28;20028;-59
2023/01/13 02:35:56;;;;;;;0.80;0.17;;;7.20;99.90;;;;;;5082513;28;20039;-54
2023/01/13 02:38:53;;;;;;;0.70;0.28;;;7.10;99.90;;;;;;5078219;28;20079;-56
2023/01/13 02:44:25;;;;;;;1.55;0.40;;;7.00;99.90;;;;;;5081901;28;20048;-57
2023/01/13 02:47:00;;;;;;;1.42;0.40;;;6.90;99.90;;;;;;5083699;28;20048;-51
2023/01/13 02:49:35;;;;;;;1.73;0.43;;;6.90;99.90;;;;;;5079346;28;20475;-55
2023/01/13 02:52:14;;;;;;;4.03;0.55;;;6.90;99.90;;;;;;5071282;28;20032;-50
2023/01/13 02:54:46;;;;;;;5.95;0.77;;;6.90;99.90;;;;;;5082419;28;20043;-50
2023/01/13 02:57:14;;;;;;;2.05;0.45;;;6.80;99.90;;;;;;5080255;28;20050;-54
2023/01/13 02:59:41;;;;;;;1.60;0.40;;;6.80;99.90;;;;;;5080301;28;20044;-50
2023/01/13 03:02:11;;;;;;;1.52;0.40;;;6.70;99.90;;;;;;5079526;28;20620;-52
2023/01/13 03:04:56;;;;;;;2.67;0.28;;;6.70;99.90;;;;;;5081710;28;20078;-48
2023/01/13 03:08:03;;;;;;;2.42;0.50;;;6.70;99.90;;;;;;5076077;28;20036;-59
2023/01/13 03:10:47;;;;;;;1.50;0.50;;;6.70;99.90;;;;;;5075272;28;21836;-56
2023/01/13 03:13:35;;;;;;;2.50;0.52;;;6.70;99.90;;;;;;5078130;28;20032;-49
2023/01/13 03:16:14;;;;;;;3.92;0.50;;;6.60;99.90;;;;;;5079091;28;20123;-50
2023/01/13 03:18:48;;;;;;;2.53;0.70;;;6.60;99.90;;;;;;5078307;28;20066;-54
2023/01/13 03:21:18;;;;;;;0.95;0.30;;;6.60;99.90;;;;;;5071961;28;20537;-57
2023/01/13 03:23:53;;;;;;;0.82;0.30;;;6.50;99.90;;;;;;5080475;28;20112;-50
2023/01/13 03:26:35;;;;;;;1.85;0.30;;;6.50;99.90;;;;;;5073201;28;20071;-54
2023/01/13 03:29:31;;;;;;;1.27;0.30;;;6.40;99.90;;;;;;5078893;28;20032;-57
2023/01/13 03:32:04;;;;;;;2.88;0.68;;;6.30;99.90;;;;;;5080255;28;20626;-48
2023/01/13 03:34:42;;;;;;;2.78;0.40;;;6.30;99.90;;;;;;5079017;28;20075;-59
2023/01/13 03:37:09;;;;;;;1.77;0.32;;;6.30;99.90;;;;;;5080817;28;20046;-53
2023/01/13 03:39:38;;;;;;;3.35;0.43;;;6.30;99.90;;;;;;5085635;28;20486;-57
2023/01/13 03:42:12;;;;;;;2.08;0.38;;;6.30;99.90;;;;;;5070995;28;20032;-55
2023/01/13 03:44:44;;;;;;;2.42;0.30;;;6.30;99.90;;;;;;5077779;28;20040;-51
2023/01/13 03:47:32;;;;;;;4.00;0.45;;;6.20;99.90;;;;;;5078821;28;20062;-56
2023/01/13 03:50:12;;;;;;;4.90;0.73;;;6.10;99.90;;;;;;5082249;28;20028;-55
2023/01/13 03:52:45;;;;;;;2.03;0.52;;;6.00;99.90;;;;;;5075221;28;20753;-57
2023/01/13 03:55:18;;;;;;;4.75;0.70;;;5.90;99.90;;;;;;5083926;28;20073;-57
2023/01/13 03:57:50;;;;;;;3.60;0.70;;;5.90;99.90;;;;;;5087663;28;20063;-55
2023/01/13 04:00:18;;;;;;;2.88;0.95;;;5.80;99.90;;;;;;5082888;28;20064;-54
2023/01/13 04:02:50;;;;;;;4.55;0.70;;;5.80;99.90;;;;;;5080922;28;20040;-59
2023/01/13 04:05:16;;;;;;;6.50;1.42;;;5.80;99.90;;;;;;5083389;28;20518;-58
2023/01/13 04:08:05;;;;;;;4.90;0.88;;;5.80;99.90;;;;;;5086730;28;20036;-57
2023/01/13 04:10:38;;;;;;;6.15;1.00;;;5.80;99.90;;;;;;5080910;28;20043;-54
2023/01/13 04:13:08;;;;;;;7.95;1.08;;;5.80;99.90;;;;;;5077613;28;20147;-53
2023/01/13 04:15:41;;;;;;;4.35;1.02;;;5.70;99.90;;;;;;5080240;28;20107;-52
2023/01/13 04:18:25;;;;;;;7.82;1.15;;;5.60;99.90;;;;;;5083120;28;20406;-51
2023/01/13 04:20:53;;;;;;;2.35;0.60;;;5.50;99.90;;;;;;5083286;28;20036;-59
2023/01/13 04:23:20;;;;;;;5.30;0.85;;;5.40;99.90;;;;;;5083489;28;20144;-52
2023/01/13 04:25:46;;;;;;;5.70;0.73;;;5.40;99.90;;;;;;5083997;28;20051;-55
2023/01/13 04:28:13;;;;;;;6.80;0.90;;;5.40;99.90;;;;;;5080082;28;20043;-58
2023/01/13 04:30:39;;;;;;;9.60;0.95;;;5.40;99.90;;;;;;5076835;28;20473;-56
2023/01/13 04:33:05;;;;;;;9.68;0.63;;;5.50;99.90;;;;;;5086397;28;20042;-54
2023/01/13 04:35:32;;;;;;;7.57;0.90;;;5.50;99.90;;;;;;5080358;28;20040;-59
2023/01/13 04:38:03;;;;;;;6.95;0.98;;;5.50;99.90;;;;;;5079253;28;20460;-54
2023/01/13 04:40:29;;;;;;;5.13;1.00;;;5.50;99.90;;;;;;5082235;28;20061;-55
2023/01/13 04:42:55;;;;;;;6.05;0.90;;;5.50;99.90;;;;;;5078629;28;20045;-56
2023/01/13 04:45:20;;;;;;;;;;;5.40;99.90;;;;;;5077382;28;20389;-58
2023/01/13 04:47:47;;;;;;;7.47;1.50;;;5.30;99.90;;;;;;5080969;28;19952;-56
2023/01/13 04:50:13;;;;;;;13.93;1.70;;;5.20;99.90;;;;;;5082888;28;20044;-55
2023/01/13 04:52:39;;;;;;;15.73;3.08;;;5.10;99.90;;;;;;5081011;28;20030;-51
2023/01/13 04:55:06;;;;;;;13.27;1.90;;;5.10;99.90;;;;;;5081666;28;20127;-51
2023/01/13 04:57:33;;;;;;;9.82;2.10;;;5.10;99.90;;;;;;5080961;28;20065;-54
2023/01/13 05:00:00;;;;;;;7.22;2.13;;;5.20;99.90;;;;;;5081643;28;20048;-59
2023/01/13 05:02:26;;;;;;;11.10;1.50;;;5.10;99.90;;;;;;5079697;28;20581;-55
2023/01/13 05:04:52;;;;;;;12.27;1.90;;;5.10;99.90;;;;;;5084142;28;20036;-54
2023/01/13 05:07:18;;;;;;;12.75;2.92;;;5.00;99.90;;;;;;5081583;28;20492;-56
2023/01/13 05:09:43;;;;;;;;;;;5.00;99.90;;;;;;5084768;28;20032;-59
2023/01/13 05:17:39;;;;;;;12.82;1.75;;;5.20;99.90;;;;;;5083783;28;20444;-59
2023/01/13 05:20:06;;;;;;;18.77;1.80;;;5.10;99.90;;;;;;5083386;28;20119;-58
2023/01/13 05:25:23;;;;;;;15.10;2.90;;;5.10;99.90;;;;;;5082315;28;20040;-55
2023/01/13 05:27:56;;;;;;;23.55;3.72;;;5.10;99.90;;;;;;5067925;28;20043;-52
2023/01/13 05:30:27;;;;;;;19.83;2.75;;;5.00;99.90;;;;;;5075632;28;20044;-58
2023/01/13 05:32:53;;;;;;;15.75;2.67;;;5.00;99.90;;;;;;5076609;28;20043;-57
2023/01/13 05:35:19;;;;;;;27.00;3.05;;;5.00;99.90;;;;;;5079841;28;20051;-57
2023/01/13 05:37:45;;;;;;;18.40;2.97;;;5.00;99.90;;;;;;5078239;28;20039;-56
2023/01/13 05:43:18;;;;;;;17.15;2.88;;;4.90;99.90;;;;;;5078934;28;20032;-57
2023/01/13 05:45:56;;;;;;;16.40;2.38;;;4.90;99.90;;;;;;5078632;28;20412;-57
2023/01/13 05:48:27;;;;;;;12.00;2.10;;;4.90;99.90;;;;;;5085215;28;20047;-52
2023/01/13 05:50:53;;;;;;;15.80;2.42;;;4.90;99.90;;;;;;5076320;28;20547;-57
2023/01/13 05:53:19;;;;;;;20.35;2.97;;;4.80;99.90;;;;;;5076027;28;20134;-54
2023/01/13 05:55:45;;;;;;;14.48;2.45;;;4.80;99.90;;;;;;5081379;28;20039;-54
2023/01/13 05:58:13;;;;;;;11.45;1.70;;;4.80;99.90;;;;;;5084374;28;20036;-58
2023/01/13 06:00:39;;;;;;;15.95;2.58;;;4.70;99.90;;;;;;5077848;28;20112;-54
2023/01/13 06:03:05;;;;;;;21.30;2.47;;;4.70;99.90;;;;;;5074921;28;20445;-58
2023/01/13 06:05:32;;;;;;;19.40;2.80;;;4.70;99.90;;;;;;5069486;28;20036;-56
2023/01/13 06:08:01;;;;;;;13.35;2.03;;;4.70;99.90;;;;;;5076589;28;20047;-56
2023/01/13 06:10:27;;;;;;;13.55;2.28;;;4.70;99.90;;;;;;5074182;28;20067;-55
2023/01/13 06:12:53;;;;;;;12.80;1.85;;;4.70;99.90;;;;;;5075943;28;20050;-57
2023/01/13 06:15:20;;;;;;;10.35;2.55;;;4.70;99.90;;;;;;5069083;28;20070;-60
2023/01/13 06:17:46;;;;;;;10.43;2.00;;;4.70;99.90;;;;;;5073349;28;20089;-57
2023/01/13 06:20:13;;;;;;;16.55;1.70;;;4.70;99.90;;;;;;5072935;28;20040;-59
2023/01/13 06:22:42;;;;;;;12.93;2.08;;;4.80;99.90;;;;;;5076174;28;20044;-62
2023/01/13 06:25:24;;;;;;;18.13;2.72;;;4.80;99.90;;;;;;5078177;28;20048;-57
2023/01/13 06:27:52;;;;;;;14.30;2.08;;;4.80;99.90;;;;;;5080589;28;20042;-55
2023/01/13 06:30:17;;;;;;;14.23;1.60;;;4.80;99.90;;;;;;5075359;28;20040;-56
2023/01/13 06:32:47;;;;;;;17.90;2.92;;;4.80;99.90;;;;;;5072032;28;20071;-59
2023/01/13 06:35:17;;;;;;;19.13;1.40;;;4.80;99.90;;;;;;5079701;28;20044;-60
2023/01/13 06:37:46;;;;;;;9.73;1.65;;;4.80;99.90;;;;;;5084199;28;20051;-63
2023/01/13 06:40:13;;;;;;;15.90;2.28;;;4.80;99.90;;;;;;5083742;28;20031;-59
2023/01/13 06:45:25;;;;;;;18.30;2.10;;;4.90;99.90;;;;;;5079222;28;20032;-59
2023/01/13 06:47:51;;;;;;;10.20;1.75;;;5.00;99.90;;;;;;5076608;28;20036;-58
2023/01/13 06:50:19;;;;;;;13.40;1.92;;;5.10;99.90;;;;;;5080379;28;20050;-62
2023/01/13 06:52:45;;;;;;;17.13;2.08;;;5.10;99.90;;;;;;5079108;28;20028;-52
2023/01/13 06:55:11;;;;;;;11.38;1.95;;;5.10;99.90;;;;;;5077944;28;20754;-51
2023/01/13 06:57:50;;;;;;;16.17;2.00;;;5.10;99.90;;;;;;5078826;28;20040;-57
2023/01/13 07:00:16;;;;;;;23.40;2.22;;;5.10;99.90;;;;;;5073731;28;20032;-54
2023/01/13 07:02:42;;;;;;;9.95;2.58;;;5.10;99.90;;;;;;5059626;28;20040;-59
2023/01/13 07:05:07;;;;;;;10.57;1.90;;;5.10;99.90;;;;;;5075659;28;20044;-51
2023/01/13 07:07:33;;;;;;;18.17;2.00;;;5.10;99.90;;;;;;5074221;28;20040;-55
2023/01/13 07:09:59;;;;;;;13.88;2.38;;;5.10;99.90;;;;;;5080316;28;20550;-50
2023/01/13 07:12:24;;;;;;;14.57;2.58;;;5.10;99.90;;;;;;5077118;28;20048;-53
2023/01/13 07:17:54;;;;;;;12.32;2.17;;;5.10;99.90;;;;;;5019052;28;20087;-56
2023/01/13 07:20:19;;;;;;;11.10;2.05;;;5.10;99.90;;;;;;5018383;28;20519;-50
2023/01/13 07:22:45;;;;;;;23.27;4.75;;;5.10;99.90;;;;;;5046614;28;20059;-59
2023/01/13 07:25:11;;;;;;;15.77;2.25;;;5.10;99.90;;;;;;5075127;28;20043;-53
2023/01/13 07:27:37;;;;;;;18.10;3.13;;;5.10;99.90;;;;;;5081307;28;20555;-56
2023/01/13 07:30:04;;;;;;;15.23;3.13;;;5.10;99.90;;;;;;5084171;28;20059;-55
2023/01/13 07:32:32;;;;;;;12.73;2.03;;;5.20;99.90;;;;;;5080033;28;20032;-54
2023/01/13 07:35:03;;;;;;;18.13;2.45;;;5.20;99.90;;;;;;5085982;28;20626;-54
2023/01/13 07:37:30;;;;;;;21.50;2.17;;;5.20;99.90;;;;;;5080085;28;20452;-60
2023/01/13 07:39:56;;;;;;;22.08;2.28;;;5.20;99.90;;;;;;5080279;28;20058;-54
2023/01/13 07:45:06;;;;;;;13.35;2.80;;;5.30;99.90;;;;;;5077111;28;20169;-48
2023/01/13 07:47:32;;;;;;;15.65;3.03;;;5.30;99.90;;;;;;5082035;28;20956;-55
2023/01/13 07:49:58;;;;;;;12.75;2.05;;;5.30;99.90;;;;;;5078085;28;20050;-60
2023/01/13 07:52:23;;;;;;;12.30;2.17;;;5.30;99.90;;;;;;5075739;28;21870;-55
2023/01/13 07:54:49;;;;;;;34.28;8.60;;;5.30;99.90;;;;;;5079463;28;20093;-56
2023/01/13 07:57:14;;;;;;;13.18;2.58;;;5.30;99.90;;;;;;5084510;28;20052;-59
2023/01/13 07:59:40;;;;;;;15.88;2.17;;;5.30;99.90;;;;;;5088058;28;20043;-58
2023/01/13 08:02:11;;;;;;;13.38;2.53;;;5.20;99.90;;;;;;5079534;28;20053;-58
2023/01/13 08:04:37;;;;;;;21.40;3.83;;;5.20;99.90;;;;;;5085359;28;20511;-57
2023/01/13 08:07:04;;;;;;;15.27;1.95;;;5.10;99.90;;;;;;5085249;28;20162;-60
2023/01/13 08:09:30;;;;;;;11.88;1.95;;;5.20;99.90;;;;;;5083306;28;20078;-58
2023/01/13 08:14:39;;;;;;;11.80;2.53;;;5.10;99.90;;;;;;5083461;28;20032;-57
2023/01/13 08:17:07;;;;;;;18.95;2.83;;;5.10;99.90;;;;;;5083231;28;20043;-56
2023/01/13 08:19:32;;;;;;;16.27;2.65;;;5.10;99.90;;;;;;5080545;28;20394;-57
2023/01/13 08:21:58;;;;;;;15.00;2.00;;;5.10;99.90;;;;;;5074580;28;20044;-55
2023/01/13 08:24:24;;;;;;;13.50;2.10;;;5.10;99.90;;;;;;5082137;28;20040;-54
2023/01/13 08:26:49;;;;;;;;;;;5.10;99.90;;;;;;5082906;28;20119;-56
2023/01/13 08:29:15;;;;;;;13.95;2.42;;;5.10;99.90;;;;;;5083931;28;19916;-51
2023/01/13 08:31:41;;;;;;;12.18;2.03;;;5.20;99.90;;;;;;5079211;28;20062;-60
2023/01/13 08:34:06;;;;;;;;;;;5.20;99.90;;;;;;5084050;28;20043;-52
2023/01/13 08:36:32;;;;;;;17.85;2.75;;;5.30;99.90;;;;;;5083044;28;19916;-60
2023/01/13 08:38:57;;;;;;;11.15;2.13;;;5.40;99.90;;;;;;5081146;28;20098;-52
2023/01/13 08:44:08;;;;;;;16.02;2.33;;;5.40;99.90;;;;;;5083757;28;19924;-54
2023/01/13 08:46:34;;;;;;;12.10;2.08;;;5.50;99.90;;;;;;5081420;28;20084;-56
2023/01/13 08:49:00;;;;;;;12.68;2.45;;;5.50;99.90;;;;;;5085681;28;20036;-52
2023/01/13 08:51:26;;;;;;;11.50;1.88;;;5.50;99.90;;;;;;5076541;28;20055;-52
2023/01/13 08:53:51;;;;;;;14.80;1.70;;;5.50;99.90;;;;;;5077494;28;20036;-57
2023/01/13 08:56:17;;;;;;;10.60;1.80;;;5.50;99.90;;;;;;5081959;28;20142;-54
2023/01/13 08:58:43;;;;;;;;;;;5.50;99.90;;;;;;5081403;28;20040;-53
2023/01/13 09:01:12;;;;;;;19.35;2.10;;;5.50;99.90;;;;;;5075137;28;19927;-52
2023/01/13 09:03:38;;;;;;;10.52;1.63;;;5.50;99.90;;;;;;5074695;28;20254;-53
2023/01/13 09:06:04;;;;;;;16.20;2.40;;;5.50;99.90;;;;;;5083961;28;20577;-54
2023/01/13 09:08:30;;;;;;;15.27;2.60;;;5.60;99.90;;;;;;5079890;28;20046;-52
2023/01/13 09:10:56;;;;;;;8.73;1.67;;;5.60;99.90;;;;;;5078612;28;20051;-57
2023/01/13 09:13:22;;;;;;;17.35;1.90;;;5.70;99.90;;;;;;5061812;28;20036;-55
2023/01/13 09:15:47;;;;;;;14.77;1.98;;;5.80;99.90;;;;;;5072853;28;20560;-59
2023/01/13 09:18:13;;;;;;;13.35;2.20;;;5.90;99.90;;;;;;5074928;28;20048;-57
2023/01/13 09:20:39;;;;;;;7.40;2.38;;;5.90;99.90;;;;;;5075143;28;20055;-54
2023/01/13 09:23:05;;;;;;;10.45;1.73;;;5.90;99.90;;;;;;5078052;28;20047;-55
2023/01/13 09:25:31;;;;;;;9.73;1.75;;;5.90;99.90;;;;;;5076193;28;20139;-58
2023/01/13 09:27:57;;;;;;;8.00;1.45;;;5.90;99.90;;;;;;5080226;28;20126;-59
2023/01/13 09:30:23;;;;;;;11.40;1.73;;;5.90;99.90;;;;;;5075913;28;20044;-51
2023/01/13 09:34:58;;;;;;;11.00;1.90;;;5.90;99.90;;;;;;5072782;28;20097;-58
2023/01/13 09:35:35;;;;;;;8.18;1.35;;;5.90;99.90;;;;;;5079547;28;20040;-53
2023/01/13 09:38:01;;;;;;;10.73;1.95;;;5.90;99.90;;;;;;5080894;28;20140;-50
2023/01/13 09:40:26;;;;;;;9.43;2.25;;;5.90;99.90;;;;;;5077818;28;20032;-55
2023/01/13 09:46:02;;;;;;;8.07;2.00;;;5.80;99.90;;;;;;5079126;28;20039;-54
2023/01/13 09:48:50;;;;;;;5.30;1.33;;;5.90;99.90;;;;;;5077342;28;20069;-55
2023/01/13 09:51:29;;;;;;;15.75;1.75;;;5.90;99.90;;;;;;5073878;28;20040;-54
2023/01/13 09:54:24;;;;;;;8.52;2.30;;;5.90;99.90;;;;;;5074574;28;20428;-58
2023/01/13 09:56:53;;;;;;;13.32;1.60;;;5.90;99.90;;;;;;5073639;28;20056;-58
2023/01/13 09:59:19;;;;;;;10.48;2.00;;;5.90;99.90;;;;;;5079551;28;20126;-54
2023/01/13 10:02:01;;;;;;;12.50;1.98;;;5.90;99.90;;;;;;5075308;28;20158;-58
2023/01/13 10:04:27;;;;;;;13.65;2.30;;;5.90;99.90;;;;;;5078802;28;20063;-55
2023/01/13 10:07:00;;;;;;;9.05;2.30;;;5.90;99.90;;;;;;5080012;28;20786;-56
2023/01/13 10:09:42;;;;;;;8.82;1.75;;;5.90;99.90;;;;;;5079198;28;20059;-54
2023/01/13 10:14:59;;;;;;;15.25;2.90;;;6.00;99.90;;;;;;5076268;28;20070;-57
2023/01/13 10:17:32;;;;;;;15.50;1.92;;;6.10;99.90;;;;;;5082821;28;20059;-55
2023/01/13 10:20:20;;;;;;;14.88;2.30;;;6.20;99.90;;;;;;5077731;28;20063;-57
2023/01/13 10:23:27;;;;;;;10.57;1.67;;;6.10;99.90;;;;;;5076467;28;20067;-57
2023/01/13 10:26:19;;;;;;;11.38;1.67;;;6.00;99.90;;;;;;5028002;28;20052;-56
2023/01/13 10:28:53;;;;;;;5.78;1.48;;;5.90;99.90;;;;;;5074371;28;20063;-57
2023/01/13 10:31:20;;;;;;;8.10;1.60;;;6.00;99.90;;;;;;5055090;28;20032;-52
2023/01/13 10:33:46;;;;;;;14.10;1.80;;;5.90;99.90;;;;;;5077719;28;20613;-52
2023/01/13 10:36:13;;;;;;;16.23;2.20;;;5.90;99.90;;;;;;5082043;28;20044;-58
2023/01/13 10:38:49;;;;;;;16.25;3.00;;;6.00;99.90;;;;;;5086044;28;20639;-50
2023/01/13 10:41:15;;;;;;;11.45;1.83;;;6.00;99.90;;;;;;5074204;28;20113;-52
2023/01/13 10:44:05;;;;;;;11.25;2.58;;;6.00;99.90;;;;;;5078716;28;20060;-56
2023/01/13 10:46:33;;;;;;;14.02;2.05;;;6.00;99.90;;;;;;5077973;28;20171;-53
2023/01/13 10:49:01;;;;;;;7.18;1.70;;;6.00;99.90;;;;;;5084872;28;20039;-50
2023/01/13 10:51:28;;;;;;;10.07;3.38;;;6.00;99.90;;;;;;5076368;28;20083;-55
2023/01/13 10:53:55;;;;;;;12.80;2.28;;;6.00;99.90;;;;;;5082540;28;20040;-54
2023/01/13 10:56:22;;;;;;;13.43;1.80;;;5.90;99.90;;;;;;5081252;28;20075;-55
2023/01/13 10:58:48;;;;;;;17.10;2.10;;;5.90;99.90;;;;;;5081412;28;20044;-58
2023/01/13 11:01:26;;;;;;;8.35;1.92;;;6.00;99.90;;;;;;5080697;28;20036;-56
2023/01/13 11:03:55;;;;;;;12.15;2.15;;;5.90;99.90;;;;;;5076623;28;20085;-51
2023/01/13 11:06:26;;;;;;;13.75;2.00;;;5.90;99.90;;;;;;5072913;28;20040;-56
2023/01/13 11:08:54;;;;;;;15.80;2.42;;;5.90;99.90;;;;;;5077414;28;20085;-50
2023/01/13 11:11:25;;;;;;;17.23;2.08;;;5.90;99.90;;;;;;5078157;28;20507;-53
2023/01/13 11:16:42;;;;;;;11.55;2.22;;;5.80;99.90;;;;;;5079526;28;20048;-62
2023/01/13 11:19:14;;;;;;;20.42;3.63;;;5.80;99.90;;;;;;5082594;28;20062;-54
2023/01/13 11:21:53;;;;;;;15.95;2.55;;;6.00;99.90;;;;;;5077239;28;20117;-57
2023/01/13 11:24:35;;;;;;;13.20;2.10;;;6.10;99.90;;;;;;5081071;28;20051;-55
2023/01/13 11:27:16;;;;;;;16.55;3.38;;;6.10;99.90;;;;;;5078258;28;20048;-55
2023/01/13 11:30:08;;;;;;;13.35;2.50;;;6.20;99.90;;;;;;5078997;28;20071;-54
2023/01/13 11:33:05;;;;;;;18.77;2.38;;;6.20;99.90;;;;;;5066824;28;20047;-56
2023/01/13 11:35:34;;;;;;;14.57;2.35;;;6.30;99.90;;;;;;5075957;28;20046;-54
2023/01/13 11:38:29;;;;;;;14.25;2.50;;;6.20;99.90;;;;;;5074265;28;20047;-54
2023/01/13 11:41:05;;;;;;;13.38;2.40;;;6.20;99.90;;;;;;5074112;28;20043;-58
2023/01/13 11:43:38;;;;;;;18.73;2.50;;;6.10;99.90;;;;;;5075056;28;20044;-52
2023/01/13 11:46:05;;;;;;;21.45;3.85;;;5.90;99.90;;;;;;5076797;28;20044;-59
2023/01/13 11:48:34;;;;;;;14.15;2.15;;;5.90;99.90;;;;;;5076985;28;20498;-52
2023/01/13 11:51:27;;;;;;;16.65;2.63;;;6.00;99.90;;;;;;5071283;28;20441;-58
2023/01/13 11:54:05;;;;;;;12.88;2.00;;;6.00;99.90;;;;;;5079213;28;20044;-55
2023/01/13 11:57:05;;;;;;;17.92;2.22;;;6.10;99.90;;;;;;5076765;28;20119;-53
2023/01/13 12:00:03;;;;;;;22.00;2.95;;;6.20;99.90;;;;;;5082195;28;20097;-54
2023/01/13 12:02:59;;;;;;;12.18;2.00;;;6.10;99.90;;;;;;5070648;28;20246;-52
2023/01/13 12:05:43;;;;;;;17.52;4.00;;;6.10;99.90;;;;;;5078554;28;20423;-53
2023/01/13 12:08:22;;;;;;;18.83;2.65;;;6.00;99.90;;;;;;5080754;28;20438;-53
2023/01/13 12:11:10;;;;;;;16.70;2.95;;;6.00;99.90;;;;;;5076915;28;20068;-56
2023/01/13 12:13:45;;;;;;;15.65;2.53;;;5.90;99.90;;;;;;5079670;28;20651;-59
2023/01/13 12:16:14;;;;;;;21.02;2.92;;;5.90;99.90;;;;;;5076176;28;20131;-57
2023/01/13 12:19:18;;;;;;;12.85;3.28;;;5.90;99.90;;;;;;5085709;28;20066;-57
2023/01/13 12:22:10;;;;;;;18.10;2.50;;;5.90;99.90;;;;;;5079864;28;20085;-57
2023/01/13 12:25:03;;;;;;;26.25;3.13;;;5.80;99.90;;;;;;5083302;28;20071;-53
2023/01/13 12:27:40;;;;;;;15.70;2.38;;;5.90;99.90;;;;;;5081171;28;20141;-56
2023/01/13 12:30:26;;;;;;;22.35;3.38;;;5.70;99.90;;;;;;5084359;28;20085;-58
2023/01/13 12:32:56;;;;;;;15.70;2.47;;;5.70;99.90;;;;;;5073820;28;20047;-58
2023/01/13 12:35:46;;;;;;;16.52;2.88;;;5.80;99.90;;;;;;5078078;28;20093;-51
2023/01/13 12:38:18;;;;;;;18.55;2.45;;;5.80;99.90;;;;;;5080402;28;20068;-58
2023/01/13 12:41:08;;;;;;;10.15;2.30;;;5.90;99.90;;;;;;5079237;28;20427;-58
2023/01/13 12:46:20;;;;;;;18.25;2.92;;;5.90;99.90;;;;;;5083166;28;20036;-55
2023/01/13 12:48:58;;;;;;;17.80;2.83;;;5.80;99.90;;;;;;5085007;28;20721;-53
2023/01/13 12:51:25;;;;;;;13.30;2.50;;;5.80;99.90;;;;;;5080094;28;20124;-56
2023/01/13 12:53:51;;;;;;;18.35;2.58;;;5.80;99.90;;;;;;5079190;28;20035;-56
2023/01/13 12:56:34;;;;;;;12.25;2.28;;;5.80;99.90;;;;;;5078905;28;20623;-55
2023/01/13 12:59:18;;;;;;;15.57;2.60;;;5.80;99.90;;;;;;5078823;28;20572;-59
2023/01/13 13:01:49;;;;;;;18.30;2.47;;;5.70;99.90;;;;;;5079385;28;20028;-56
2023/01/13 13:04:19;;;;;;;16.20;2.38;;;5.70;99.90;;;;;;5083125;28;20061;-53
2023/01/13 13:07:03;;;;;;;18.58;2.47;;;5.70;99.90;;;;;;5083663;28;20036;-57
2023/01/13 13:09:33;;;;;;;15.82;3.10;;;5.80;99.90;;;;;;5082993;28;20063;-55
2023/01/13 13:15:21;;;;;;;17.35;2.40;;;5.90;99.90;;;;;;5079011;28;20044;-58
2023/01/13 13:18:15;;;;;;;22.58;2.30;;;5.90;99.90;;;;;;5077975;28;20040;-54
2023/01/13 13:20:53;;;;;;;14.73;2.33;;;6.00;99.90;;;;;;5078423;28;20063;-55
2023/01/13 13:23:43;;;;;;;16.45;3.72;;;6.00;99.90;;;;;;5078192;28;20047;-49
2023/01/13 13:26:22;;;;;;;17.17;2.58;;;6.00;99.90;;;;;;5074649;28;20044;-56
2023/01/13 13:29:06;;;;;;;23.15;2.78;;;6.00;99.90;;;;;;5084019;28;20036;-56
2023/01/13 13:31:35;;;;;;;12.07;2.25;;;6.00;99.90;;;;;;5074759;28;20041;-57
2023/01/13 13:34:20;;;;;;;16.40;2.55;;;5.90;99.90;;;;;;5079412;28;20032;-56
2023/01/13 13:37:03;;;;;;;13.82;2.28;;;5.90;99.90;;;;;;5081123;28;20098;-55
2023/01/13 13:48:21;;;;;;;17.58;3.90;;;5.80;99.90;;;;;;5084719;28;20044;-57
2023/01/13 13:51:02;;;;;;;17.35;2.83;;;5.80;99.90;;;;;;5075906;28;20051;-55
2023/01/13 13:53:34;;;;;;;16.60;2.47;;;5.80;99.90;;;;;;5076303;28;20037;-56
2023/01/13 13:56:06;;;;;;;12.07;2.28;;;5.80;99.90;;;;;;5079228;28;20073;-57
2023/01/13 13:58:35;;;;;;;22.45;2.63;;;5.80;99.90;;;;;;5075863;28;20055;-53
2023/01/13 14:01:03;;;;;;;15.05;3.45;;;5.80;99.90;;;;;;5076747;28;20132;-51
2023/01/13 14:03:35;;;;;;;19.23;2.35;;;5.80;99.90;;;;;;5082506;28;20486;-50
2023/01/13 14:06:06;;;;;;;17.35;2.78;;;5.80;99.90;;;;;;5078089;28;20047;-58
2023/01/13 14:08:34;;;;;;;10.30;1.98;;;5.70;99.90;;;;;;5078616;28;20036;-49
2023/01/13 14:11:00;;;;;;;21.35;2.53;;;5.60;99.90;;;;;;5072012;28;20084;-54
2023/01/13 14:13:28;;;;;;;15.75;3.28;;;5.60;99.90;;;;;;5080751;28;20040;-54
2023/01/13 14:16:03;;;;;;;22.20;3.63;;;5.50;99.90;;;;;;5073657;28;20043;-51
2023/01/13 14:18:31;;;;;;;18.95;1.95;;;5.50;99.90;;;;;;5077532;28;20044;-50
2023/01/13 14:21:25;;;;;;;16.73;2.53;;;5.40;99.90;;;;;;5073644;28;20029;-46